createdAt,value
2019-05-18T00:00:00.104Z,9.94
2019-05-18T00:05:00.111Z,9.94
2019-05-18T00:10:00.125Z,9.94
2019-05-18T00:15:00.117Z,9.81
2019-05-18T00:20:00.087Z,9.75
2019-05-18T00:25:00.102Z,9.56
2019-05-18T00:30:00.113Z,9.5
2019-05-18T00:35:00.097Z,9.38
2019-05-18T00:40:00.085Z,9.44
2019-05-18T00:45:00.122Z,9.56
2019-05-18T00:50:00.113Z,9.56
2019-05-18T00:55:00.100Z,9.44
2019-05-18T01:00:00.062Z,9.25
2019-05-18T01:05:00.106Z,9.06
2019-05-18T01:10:00.075Z,9
2019-05-18T01:15:00.108Z,8.94
2019-05-18T01:20:00.121Z,8.94
2019-05-18T01:25:00.121Z,8.94
2019-05-18T01:30:00.108Z,8.88
2019-05-18T01:35:00.096Z,8.81
2019-05-18T01:40:00.131Z,8.81
2019-05-18T01:45:01.254Z,8.75
2019-05-18T01:50:00.078Z,8.75
2019-05-18T01:55:00.126Z,8.81
2019-05-18T02:00:00.115Z,8.94
2019-05-18T02:05:00.119Z,9
2019-05-18T02:10:00.122Z,8.94
2019-05-18T02:15:00.099Z,9
2019-05-18T02:20:00.117Z,9.06
2019-05-18T02:25:00.097Z,9.06
2019-05-18T02:30:00.110Z,8.94
2019-05-18T02:35:00.109Z,9
2019-05-18T02:40:00.120Z,9
2019-05-18T02:45:00.109Z,8.94
2019-05-18T02:50:00.102Z,8.88
2019-05-18T02:55:00.111Z,8.81
2019-05-18T03:00:00.101Z,8.75
2019-05-18T03:05:00.096Z,8.69
2019-05-18T03:10:00.113Z,8.75
2019-05-18T03:15:00.116Z,8.81
2019-05-18T03:20:00.070Z,8.81
2019-05-18T03:25:00.140Z,8.75
2019-05-18T03:30:00.142Z,8.75
2019-05-18T03:35:00.120Z,8.94
2019-05-18T03:40:00.117Z,9.44
2019-05-18T03:45:00.107Z,10.06
2019-05-18T03:50:00.112Z,10.38
2019-05-18T03:55:00.112Z,10.81
2019-05-18T04:00:00.104Z,11.06
2019-05-18T04:05:00.127Z,11.06
2019-05-18T04:10:00.119Z,11.06
2019-05-18T04:15:00.105Z,12.25
2019-05-18T04:20:00.132Z,12.63
2019-05-18T04:25:00.099Z,13.06
2019-05-18T04:30:00.125Z,13.19
2019-05-18T04:35:00.126Z,13.63
2019-05-18T04:40:00.108Z,14.19
2019-05-18T04:45:00.077Z,14.31
2019-05-18T04:50:04.876Z,14.69
2019-05-18T04:55:00.101Z,15.25
2019-05-18T05:00:00.091Z,15.44
2019-05-18T05:05:00.111Z,15
2019-05-18T05:10:00.071Z,15
2019-05-18T05:15:00.114Z,15.38
2019-05-18T05:20:00.117Z,15.94
2019-05-18T05:25:00.106Z,16
2019-05-18T05:30:00.106Z,16
2019-05-18T05:35:00.104Z,16.25
2019-05-18T05:40:00.110Z,16.56
2019-05-18T05:45:00.101Z,16.94
2019-05-18T05:50:00.160Z,17.25
2019-05-18T05:55:00.105Z,17.44
2019-05-18T06:00:00.115Z,17.69
2019-05-18T06:05:00.113Z,17.63
2019-05-18T06:10:00.117Z,17.69
2019-05-18T06:15:00.123Z,18.13
2019-05-18T06:20:00.113Z,18.88
2019-05-18T06:25:00.113Z,19.69
2019-05-18T06:30:00.098Z,19.31
2019-05-18T06:35:00.109Z,19.56
2019-05-18T06:40:00.120Z,19.75
2019-05-18T06:45:00.113Z,19.63
2019-05-18T06:50:00.095Z,19.13
2019-05-18T06:55:00.112Z,18.94
2019-05-18T07:00:00.060Z,19.69
2019-05-18T07:05:00.122Z,19.63
2019-05-18T07:10:00.102Z,19.75
2019-05-18T07:15:00.582Z,20.44
2019-05-18T07:20:00.107Z,20.25
2019-05-18T07:25:00.103Z,19.81
2019-05-18T07:30:00.063Z,19.94
2019-05-18T07:35:00.115Z,19.31
2019-05-18T07:40:00.129Z,19.63
2019-05-18T07:45:00.178Z,20.38
2019-05-18T07:50:00.115Z,20.19
2019-05-18T07:55:00.123Z,19.5
2019-05-18T08:00:00.114Z,18.94
2019-05-18T08:05:00.062Z,17.81
2019-05-18T08:10:00.150Z,17.25
2019-05-18T08:15:00.065Z,18.06
2019-05-18T08:20:00.111Z,19
2019-05-18T08:25:00.096Z,18.63
2019-05-18T08:30:00.113Z,18
2019-05-18T08:35:00.109Z,17.31
2019-05-18T08:40:00.063Z,18.38
2019-05-18T08:45:00.105Z,18
2019-05-18T08:50:00.114Z,18.75
2019-05-18T08:55:00.120Z,18.94
2019-05-18T09:00:00.137Z,18.63
2019-05-18T09:05:00.071Z,18.69
2019-05-18T09:10:00.123Z,18.31
2019-05-18T09:15:00.068Z,19.38
2019-05-18T09:20:00.113Z,19.06
2019-05-18T09:25:00.120Z,19.63
2019-05-18T09:30:00.104Z,19.44
2019-05-18T09:35:00.106Z,19.38
2019-05-18T09:40:00.118Z,19.81
2019-05-18T09:45:00.109Z,19.5
2019-05-18T09:50:00.069Z,19.31
2019-05-18T09:55:00.119Z,19.88
2019-05-18T10:00:00.066Z,19.81
2019-05-18T10:05:00.148Z,19.06
2019-05-18T10:10:00.103Z,19.38
2019-05-18T10:15:00.147Z,20.13
2019-05-18T10:20:00.123Z,19.88
2019-05-18T10:25:00.126Z,20.5
2019-05-18T10:30:00.132Z,21.06
2019-05-18T10:35:00.103Z,21.5
2019-05-18T10:40:00.108Z,21.5
2019-05-18T10:45:00.128Z,21.25
2019-05-18T10:50:00.129Z,21.06
2019-05-18T10:55:00.213Z,21.06
2019-05-18T11:00:00.119Z,21.81
2019-05-18T11:05:00.123Z,22.06
2019-05-18T11:10:00.112Z,22.13
2019-05-18T11:15:00.093Z,22.56
2019-05-18T11:20:00.115Z,22.25
2019-05-18T11:25:00.100Z,22
2019-05-18T11:30:00.112Z,21.56
2019-05-18T11:35:00.112Z,21.44
2019-05-18T11:40:00.099Z,22.13
2019-05-18T11:45:00.127Z,22.13
2019-05-18T11:50:00.138Z,21.75
2019-05-18T11:55:00.109Z,20.44
2019-05-18T12:00:00.069Z,20.06
2019-05-18T12:05:00.109Z,20.38
2019-05-18T12:10:00.109Z,20.94
2019-05-18T12:15:00.107Z,20.75
2019-05-18T12:20:00.114Z,20.81
2019-05-18T12:25:00.118Z,20.88
2019-05-18T12:30:00.076Z,21.06
2019-05-18T12:35:00.114Z,21.19
2019-05-18T12:40:00.118Z,21.5
2019-05-18T12:45:00.103Z,21.63
2019-05-18T12:50:00.122Z,21.13
2019-05-18T12:55:00.107Z,20.63
2019-05-18T13:00:00.111Z,20.69
2019-05-18T13:05:00.111Z,21.38
2019-05-18T13:10:00.122Z,21.25
2019-05-18T13:15:00.110Z,20.94
2019-05-18T13:20:00.124Z,20.75
2019-05-18T13:25:00.149Z,20.69
2019-05-18T13:30:00.127Z,20.81
2019-05-18T13:35:00.127Z,21.44
2019-05-18T13:40:00.114Z,21.38
2019-05-18T13:45:00.112Z,21.38
2019-05-18T13:50:00.080Z,21.69
2019-05-18T13:55:04.240Z,21.75
2019-05-18T14:00:00.117Z,21.75
2019-05-18T14:05:00.078Z,21.94
2019-05-18T14:10:00.100Z,21.81
2019-05-18T14:15:00.107Z,21.94
2019-05-18T14:20:00.123Z,21.88
2019-05-18T14:25:00.098Z,21.75
2019-05-18T14:30:00.126Z,21.5
2019-05-18T14:35:00.105Z,21.44
2019-05-18T14:40:00.074Z,21.13
2019-05-18T14:45:00.102Z,21.19
2019-05-18T14:50:00.114Z,21.25
2019-05-18T14:55:00.118Z,21.13
2019-05-18T15:00:02.316Z,21.19
2019-05-18T15:05:00.101Z,21.19
2019-05-18T15:10:00.116Z,21.06
2019-05-18T15:15:00.068Z,20.94
2019-05-18T15:20:00.109Z,20.88
2019-05-18T15:25:00.134Z,20.88
2019-05-18T15:30:00.094Z,21
2019-05-18T15:35:00.079Z,21.19
2019-05-18T15:40:00.079Z,21.13
2019-05-18T15:45:00.123Z,20.63
2019-05-18T15:50:00.110Z,20.5
2019-05-18T15:55:00.107Z,20.56
2019-05-18T16:00:00.152Z,20.75
2019-05-18T16:05:00.116Z,20.94
2019-05-18T16:10:00.121Z,20.88
2019-05-18T16:15:00.105Z,20.88
2019-05-18T16:20:00.101Z,20.88
2019-05-18T16:25:00.126Z,20.88
2019-05-18T16:30:00.126Z,20.81
2019-05-18T16:35:00.104Z,20.81
2019-05-18T16:40:00.124Z,20.69
2019-05-18T16:45:00.103Z,20.63
2019-05-18T16:50:00.130Z,20.5
2019-05-18T16:55:00.060Z,20.38
2019-05-18T17:00:00.103Z,20.38
2019-05-18T17:05:00.103Z,20.25
2019-05-18T17:10:00.106Z,20.25
2019-05-18T17:15:00.111Z,20.25
2019-05-18T17:20:00.122Z,20.19
2019-05-18T17:25:00.097Z,20
2019-05-18T17:30:00.114Z,19.94
2019-05-18T17:35:00.120Z,19.81
2019-05-18T17:40:00.114Z,19.75
2019-05-18T17:45:00.115Z,19.69
2019-05-18T17:50:00.141Z,19.63
2019-05-18T17:55:00.117Z,19.44
2019-05-18T18:00:00.100Z,19.31
2019-05-18T18:05:00.115Z,19.19
2019-05-18T18:10:00.111Z,19.06
2019-05-18T18:15:00.101Z,18.94
2019-05-18T18:20:00.109Z,18.88
2019-05-18T18:25:00.106Z,18.75
2019-05-18T18:30:00.109Z,18.63
2019-05-18T18:35:00.066Z,18.5
2019-05-18T18:40:00.114Z,18.38
2019-05-18T18:45:00.102Z,18.19
2019-05-18T18:50:00.120Z,18.06
2019-05-18T18:55:00.124Z,17.88
2019-05-18T19:00:00.128Z,17.75
2019-05-18T19:05:00.125Z,17.56
2019-05-18T19:10:00.095Z,17.44
2019-05-18T19:15:00.121Z,17.31
2019-05-18T19:20:00.112Z,17.19
2019-05-18T19:25:00.110Z,17
2019-05-18T19:30:00.117Z,16.88
2019-05-18T19:35:00.098Z,16.75
2019-05-18T19:40:00.112Z,16.69
2019-05-18T19:45:00.119Z,16.56
2019-05-18T19:50:00.113Z,16.5
2019-05-18T19:55:00.117Z,16.31
2019-05-18T20:00:00.068Z,16.19
2019-05-18T20:05:07.042Z,16
2019-05-18T20:10:00.101Z,15.88
2019-05-18T20:15:00.242Z,15.81
2019-05-18T20:20:00.114Z,15.81
2019-05-18T20:25:00.112Z,15.69
2019-05-18T20:30:00.127Z,15.56
2019-05-18T20:35:00.107Z,15.31
2019-05-18T20:40:00.141Z,15.19
2019-05-18T20:45:00.121Z,15.06
2019-05-18T20:50:00.116Z,14.94
2019-05-18T20:55:00.108Z,14.94
2019-05-18T21:00:00.098Z,15
2019-05-18T21:05:00.115Z,15
2019-05-18T21:10:00.122Z,15
2019-05-18T21:15:00.117Z,14.94
2019-05-18T21:20:00.242Z,14.81
2019-05-18T21:25:00.153Z,14.69
2019-05-18T21:30:00.064Z,14.63
2019-05-18T21:35:00.116Z,14.5
2019-05-18T21:40:00.107Z,14.5
2019-05-18T21:45:00.109Z,14.38
2019-05-18T21:50:00.111Z,14.31
2019-05-18T21:55:00.108Z,14.25
2019-05-18T22:00:00.124Z,14.19
2019-05-18T22:05:00.104Z,14.19
2019-05-18T22:10:00.113Z,14.13
2019-05-18T22:15:00.124Z,14.06
2019-05-18T22:20:00.062Z,13.88
2019-05-18T22:25:00.249Z,13.69
2019-05-18T22:30:00.286Z,13.75
2019-05-18T22:35:00.194Z,13.63
2019-05-18T22:40:00.251Z,13.63
2019-05-18T22:45:00.180Z,13.63
2019-05-18T22:50:00.091Z,13.63
2019-05-18T22:55:00.173Z,13.56
2019-05-18T23:00:00.178Z,13.44
2019-05-18T23:05:00.270Z,13.38
2019-05-18T23:10:00.174Z,13.31
2019-05-18T23:15:00.109Z,13.19
2019-05-18T23:20:00.212Z,13.13
2019-05-18T23:25:00.189Z,13.13
2019-05-18T23:30:00.181Z,13.19
2019-05-18T23:35:00.209Z,13.31
2019-05-18T23:40:00.218Z,13.38
2019-05-18T23:45:00.238Z,13.38
2019-05-18T23:50:00.201Z,13.38
2019-05-18T23:55:00.214Z,13.25
